sensor_id;sensor_type;location;lat;lon;timestamp;pressure;altitude;pressure_sealevel;temperature;humidity
72721;BME280;60835;50.974;10.322;2023-04-02T00:09:21;92167.75;;;6.75;100.00
72721;BME280;60835;50.974;10.322;2023-04-02T00:11:49;92209.84;;;6.65;100.00
72721;BME280;60835;50.974;10.322;2023-04-02T00:14:24;92222.97;;;6.65;100.00
72721;BME280;60835;50.974;10.322;2023-04-02T00:16:52;92295.25;;;6.52;100.00
72721;BME280;60835;50.974;10.322;2023-04-02T00:19:22;92345.16;;;6.47;100.00
72721;BME280;60835;50.974;10.322;2023-04-02T00:22:08;92364.81;;;6.50;100.00
72721;BME280;60835;50.974;10.322;2023-04-02T00:24:38;92432.88;;;6.36;100.00
72721;BME280;60835;50.974;10.322;2023-04-02T00:27:05;92471.25;;;6.27;100.00
72721;BME280;60835;50.974;10.322;2023-04-02T00:29:32;92521.84;;;6.23;100.00
72721;BME280;60835;50.974;10.322;2023-04-02T00:31:58;92566.50;;;6.07;100.00
72721;BME280;60835;50.974;10.322;2023-04-02T00:34:27;92590.59;;;6.14;100.00
72721;BME280;60835;50.974;10.322;2023-04-02T00:36:59;92614.19;;;6.14;100.00
72721;BME280;60835;50.974;10.322;2023-04-02T00:39:31;92650.94;;;6.09;100.00
72721;BME280;60835;50.974;10.322;2023-04-02T00:41:59;92696.06;;;5.96;100.00
72721;BME280;60835;50.974;10.322;2023-04-02T00:44:36;92717.03;;;5.96;100.00
72721;BME280;60835;50.974;10.322;2023-04-02T00:47:10;92752.19;;;5.95;100.00
72721;BME280;60835;50.974;10.322;2023-04-02T00:49:44;92777.31;;;5.91;100.00
72721;BME280;60835;50.974;10.322;2023-04-02T00:52:15;92803.53;;;5.91;100.00
72721;BME280;60835;50.974;10.322;2023-04-02T00:55:05;92826.84;;;5.83;100.00
72721;BME280;60835;50.974;10.322;2023-04-02T00:57:29;92848.59;;;5.78;100.00
72721;BME280;60835;50.974;10.322;2023-04-02T00:59:58;92882.38;;;5.70;100.00
72721;BME280;60835;50.974;10.322;2023-04-02T01:02:26;92900.47;;;5.66;100.00
72721;BME280;60835;50.974;10.322;2023-04-02T01:04:55;92922.44;;;5.60;100.00
72721;BME280;60835;50.974;10.322;2023-04-02T01:07:24;92903.31;;;5.60;100.00
72721;BME280;60835;50.974;10.322;2023-04-02T01:13:03;92936.06;;;5.62;100.00
72721;BME280;60835;50.974;10.322;2023-04-02T01:15:40;92995.28;;;5.53;100.00
72721;BME280;60835;50.974;10.322;2023-04-02T01:18:20;93007.31;;;5.54;100.00
72721;BME280;60835;50.974;10.322;2023-04-02T01:23:24;93072.44;;;5.35;100.00
72721;BME280;60835;50.974;10.322;2023-04-02T01:26:39;93071.94;;;5.38;100.00
72721;BME280;60835;50.974;10.322;2023-04-02T01:31:18;93096.75;;;5.31;100.00
72721;BME280;60835;50.974;10.322;2023-04-02T01:33:44;93102.78;;;5.31;100.00
72721;BME280;60835;50.974;10.322;2023-04-02T01:36:21;93113.28;;;5.31;100.00
72721;BME280;60835;50.974;10.322;2023-04-02T01:39:02;93145.91;;;5.19;100.00
72721;BME280;60835;50.974;10.322;2023-04-02T01:41:35;93157.47;;;5.23;100.00
72721;BME280;60835;50.974;10.322;2023-04-02T01:44:06;93156.97;;;5.26;100.00
72721;BME280;60835;50.974;10.322;2023-04-02T01:46:35;93181.03;;;5.23;100.00
72721;BME280;60835;50.974;10.322;2023-04-02T01:49:12;93199.75;;;5.10;100.00
72721;BME280;60835;50.974;10.322;2023-04-02T01:51:41;93218.94;;;5.15;100.00
72721;BME280;60835;50.974;10.322;2023-04-02T01:54:08;93226.19;;;5.08;100.00
72721;BME280;60835;50.974;10.322;2023-04-02T01:56:35;93258.59;;;5.02;100.00
72721;BME280;60835;50.974;10.322;2023-04-02T01:59:02;93270.88;;;5.02;100.00
72721;BME280;60835;50.974;10.322;2023-04-02T02:01:32;93288.13;;;4.98;100.00
72721;BME280;60835;50.974;10.322;2023-04-02T02:04:01;93302.19;;;4.91;100.00
72721;BME280;60835;50.974;10.322;2023-04-02T02:06:27;93310.59;;;4.93;100.00
72721;BME280;60835;50.974;10.322;2023-04-02T02:11:25;93325.22;;;4.89;100.00
72721;BME280;60835;50.974;10.322;2023-04-02T02:16:23;93335.16;;;4.92;100.00
72721;BME280;60835;50.974;10.322;2023-04-02T02:18:53;93389.88;;;4.72;100.00
72721;BME280;60835;50.974;10.322;2023-04-02T02:23:53;93417.06;;;4.71;100.00
72721;BME280;60835;50.974;10.322;2023-04-02T02:26:20;93441.50;;;4.60;100.00
72721;BME280;60835;50.974;10.322;2023-04-02T02:28:51;93443.56;;;4.58;100.00
72721;BME280;60835;50.974;10.322;2023-04-02T02:31:26;93444.44;;;4.64;100.00
72721;BME280;60835;50.974;10.322;2023-04-02T02:33:55;93434.53;;;4.66;100.00
72721;BME280;60835;50.974;10.322;2023-04-02T02:36:28;93432.69;;;4.66;100.00
72721;BME280;60835;50.974;10.322;2023-04-02T02:39:12;93446.50;;;4.62;100.00
72721;BME280;60835;50.974;10.322;2023-04-02T02:41:42;93437.38;;;4.64;100.00
72721;BME280;60835;50.974;10.322;2023-04-02T02:44:12;93458.38;;;4.53;100.00
72721;BME280;60835;50.974;10.322;2023-04-02T02:47:21;93450.38;;;4.59;100.00
72721;BME280;60835;50.974;10.322;2023-04-02T02:49:39;93453.25;;;4.58;100.00
72721;BME280;60835;50.974;10.322;2023-04-02T02:54:34;93467.81;;;4.54;100.00
72721;BME280;60835;50.974;10.322;2023-04-02T02:57:02;93469.25;;;4.61;100.00
72721;BME280;60835;50.974;10.322;2023-04-02T02:59:31;93476.63;;;4.64;100.00
72721;BME280;60835;50.974;10.322;2023-04-02T03:01:59;93500.47;;;4.51;100.00
72721;BME280;60835;50.974;10.322;2023-04-02T03:04:27;93527.56;;;4.45;100.00
72721;BME280;60835;50.974;10.322;2023-04-02T03:06:56;93534.66;;;4.45;100.00
72721;BME280;60835;50.974;10.322;2023-04-02T03:11:51;93570.38;;;4.39;100.00
72721;BME280;60835;50.974;10.322;2023-04-02T03:17:14;93586.53;;;4.36;100.00
72721;BME280;60835;50.974;10.322;2023-04-02T03:19:43;93613.38;;;4.31;100.00
72721;BME280;60835;50.974;10.322;2023-04-02T03:22:20;93647.97;;;4.22;100.00
72721;BME280;60835;50.974;10.322;2023-04-02T03:24:57;93671.75;;;4.20;100.00
72721;BME280;60835;50.974;10.322;2023-04-02T03:27:29;93681.31;;;4.15;100.00
72721;BME280;60835;50.974;10.322;2023-04-02T03:32:26;93700.75;;;3.96;100.00
72721;BME280;60835;50.974;10.322;2023-04-02T03:37:42;93746.69;;;4.03;100.00
72721;BME280;60835;50.974;10.322;2023-04-02T03:40:14;93768.28;;;3.99;100.00
72721;BME280;60835;50.974;10.322;2023-04-02T03:45:21;93771.69;;;4.11;100.00
72721;BME280;60835;50.974;10.322;2023-04-02T03:47:57;93781.47;;;4.04;100.00
72721;BME280;60835;50.974;10.322;2023-04-02T03:50:29;93721.66;;;3.49;100.00
72721;BME280;60835;50.974;10.322;2023-04-02T03:52:57;93805.66;;;3.88;100.00
72721;BME280;60835;50.974;10.322;2023-04-02T03:55:37;93823.84;;;3.83;100.00
72721;BME280;60835;50.974;10.322;2023-04-02T04:03:14;93856.63;;;3.79;100.00
72721;BME280;60835;50.974;10.322;2023-04-02T04:05:48;93858.38;;;3.85;100.00
72721;BME280;60835;50.974;10.322;2023-04-02T04:08:20;93895.72;;;3.74;100.00
72721;BME280;60835;50.974;10.322;2023-04-02T04:10:52;93921.16;;;3.66;100.00
72721;BME280;60835;50.974;10.322;2023-04-02T04:13:23;93921.81;;;3.62;100.00
72721;BME280;60835;50.974;10.322;2023-04-02T04:15:56;93942.34;;;3.58;100.00
72721;BME280;60835;50.974;10.322;2023-04-02T04:20:56;93961.97;;;3.49;100.00
72721;BME280;60835;50.974;10.322;2023-04-02T04:23:27;93953.78;;;3.28;100.00
72721;BME280;60835;50.974;10.322;2023-04-02T04:25:56;93992.56;;;3.42;100.00
72721;BME280;60835;50.974;10.322;2023-04-02T04:28:25;93990.09;;;3.47;100.00
72721;BME280;60835;50.974;10.322;2023-04-02T04:30:56;94003.03;;;3.42;100.00
72721;BME280;60835;50.974;10.322;2023-04-02T04:33:28;94016.50;;;3.39;100.00
72721;BME280;60835;50.974;10.322;2023-04-02T04:36:05;94030.00;;;3.36;100.00
72721;BME280;60835;50.974;10.322;2023-04-02T04:38:32;94041.47;;;3.35;100.00
72721;BME280;60835;50.974;10.322;2023-04-02T04:41:03;94036.41;;;3.40;100.00
72721;BME280;60835;50.974;10.322;2023-04-02T04:43:51;94045.66;;;3.36;100.00
72721;BME280;60835;50.974;10.322;2023-04-02T04:46:22;94045.25;;;3.39;100.00
72721;BME280;60835;50.974;10.322;2023-04-02T04:51:20;94079.53;;;3.25;100.00
72721;BME280;60835;50.974;10.322;2023-04-02T04:53:50;94073.47;;;3.31;100.00
72721;BME280;60835;50.974;10.322;2023-04-02T04:56:20;94078.31;;;3.27;100.00
72721;BME280;60835;50.974;10.322;2023-04-02T04:58:53;94089.84;;;3.20;100.00
72721;BME280;60835;50.974;10.322;2023-04-02T05:02:23;94087.56;;;3.23;100.00
72721;BME280;60835;50.974;10.322;2023-04-02T05:04:19;94088.38;;;3.24;100.00
72721;BME280;60835;50.974;10.322;2023-04-02T05:09:20;94109.34;;;3.17;100.00
72721;BME280;60835;50.974;10.322;2023-04-02T05:11:52;94132.69;;;3.12;100.00
72721;BME280;60835;50.974;10.322;2023-04-02T05:17:22;94130.22;;;3.17;100.00
72721;BME280;60835;50.974;10.322;2023-04-02T05:19:58;94153.75;;;3.11;100.00
72721;BME280;60835;50.974;10.322;2023-04-02T05:22:47;94162.41;;;3.11;100.00
72721;BME280;60835;50.974;10.322;2023-04-02T05:28:05;94179.28;;;3.08;100.00
72721;BME280;60835;50.974;10.322;2023-04-02T05:30:37;94194.16;;;3.08;100.00
72721;BME280;60835;50.974;10.322;2023-04-02T05:33:05;94208.22;;;3.07;100.00
72721;BME280;60835;50.974;10.322;2023-04-02T05:35:40;94208.59;;;3.11;100.00
72721;BME280;60835;50.974;10.322;2023-04-02T05:38:12;94212.41;;;3.08;100.00
72721;BME280;60835;50.974;10.322;2023-04-02T05:40:44;94234.34;;;3.00;100.00
72721;BME280;60835;50.974;10.322;2023-04-02T05:43:14;94241.38;;;3.00;100.00
72721;BME280;60835;50.974;10.322;2023-04-02T05:45:42;94246.34;;;3.08;100.00
72721;BME280;60835;50.974;10.322;2023-04-02T05:48:15;94268.50;;;2.99;100.00
72721;BME280;60835;50.974;10.322;2023-04-02T05:50:46;94276.09;;;3.07;100.00
72721;BME280;60835;50.974;10.322;2023-04-02T05:53:35;94298.78;;;3.06;100.00
72721;BME280;60835;50.974;10.322;2023-04-02T05:58:46;94341.16;;;3.02;100.00
72721;BME280;60835;50.974;10.322;2023-04-02T06:04:19;94372.94;;;2.92;100.00
72721;BME280;60835;50.974;10.322;2023-04-02T06:06:49;94386.97;;;2.98;100.00
72721;BME280;60835;50.974;10.322;2023-04-02T06:09:33;94389.75;;;3.03;100.00
72721;BME280;60835;50.974;10.322;2023-04-02T06:12:22;94412.06;;;2.99;100.00
72721;BME280;60835;50.974;10.322;2023-04-02T06:14:50;94443.41;;;2.92;100.00
72721;BME280;60835;50.974;10.322;2023-04-02T06:17:17;94473.31;;;2.83;100.00
72721;BME280;60835;50.974;10.322;2023-04-02T06:19:43;94472.91;;;2.93;100.00
72721;BME280;60835;50.974;10.322;2023-04-02T06:22:54;94494.78;;;2.98;100.00
72721;BME280;60835;50.974;10.322;2023-04-02T06:25:16;94511.47;;;2.91;100.00
72721;BME280;60835;50.974;10.322;2023-04-02T06:27:45;94526.31;;;2.90;100.00
72721;BME280;60835;50.974;10.322;2023-04-02T06:30:14;94540.78;;;2.93;100.00
72721;BME280;60835;50.974;10.322;2023-04-02T06:32:42;94574.50;;;2.88;100.00
72721;BME280;60835;50.974;10.322;2023-04-02T06:35:13;94596.00;;;2.90;100.00
72721;BME280;60835;50.974;10.322;2023-04-02T06:37:40;94608.63;;;2.86;100.00
72721;BME280;60835;50.974;10.322;2023-04-02T06:42:53;94640.78;;;2.93;100.00
72721;BME280;60835;50.974;10.322;2023-04-02T06:45:26;94665.84;;;2.81;100.00
72721;BME280;60835;50.974;10.322;2023-04-02T06:47:54;94682.31;;;2.82;100.00
72721;BME280;60835;50.974;10.322;2023-04-02T06:50:45;94683.28;;;2.81;100.00
72721;BME280;60835;50.974;10.322;2023-04-02T06:53:16;94691.72;;;2.76;100.00
72721;BME280;60835;50.974;10.322;2023-04-02T06:55:57;94676.31;;;3.01;100.00
72721;BME280;60835;50.974;10.322;2023-04-02T06:58:26;94713.41;;;2.77;100.00
72721;BME280;60835;50.974;10.322;2023-04-02T07:00:52;94729.88;;;2.84;100.00
72721;BME280;60835;50.974;10.322;2023-04-02T07:03:23;94729.88;;;2.84;100.00
72721;BME280;60835;50.974;10.322;2023-04-02T07:05:50;94752.38;;;2.85;100.00
72721;BME280;60835;50.974;10.322;2023-04-02T07:08:19;94756.81;;;2.91;100.00
72721;BME280;60835;50.974;10.322;2023-04-02T07:10:45;94769.06;;;2.97;100.00
72721;BME280;60835;50.974;10.322;2023-04-02T07:13:13;94790.75;;;2.91;100.00
72721;BME280;60835;50.974;10.322;2023-04-02T07:15:40;94809.03;;;2.91;100.00
72721;BME280;60835;50.974;10.322;2023-04-02T07:18:09;94816.22;;;2.89;100.00
72721;BME280;60835;50.974;10.322;2023-04-02T07:20:40;94811.63;;;2.91;100.00
72721;BME280;60835;50.974;10.322;2023-04-02T07:23:08;94827.53;;;2.96;100.00
72721;BME280;60835;50.974;10.322;2023-04-02T07:25:35;94847.56;;;2.89;100.00
72721;BME280;60835;50.974;10.322;2023-04-02T07:28:03;94879.09;;;2.94;100.00
72721;BME280;60835;50.974;10.322;2023-04-02T07:30:29;94897.78;;;2.91;100.00
72721;BME280;60835;50.974;10.322;2023-04-02T07:32:56;94922.84;;;2.85;100.00
72721;BME280;60835;50.974;10.322;2023-04-02T07:35:22;94932.69;;;2.90;100.00
72721;BME280;60835;50.974;10.322;2023-04-02T07:37:49;94948.13;;;2.85;100.00
72721;BME280;60835;50.974;10.322;2023-04-02T07:40:16;94952.00;;;2.95;100.00
72721;BME280;60835;50.974;10.322;2023-04-02T07:42:43;94967.84;;;2.94;100.00
72721;BME280;60835;50.974;10.322;2023-04-02T07:45:11;94994.81;;;2.73;100.00
72721;BME280;60835;50.974;10.322;2023-04-02T07:47:39;94986.47;;;2.84;100.00
72721;BME280;60835;50.974;10.322;2023-04-02T07:50:13;94988.47;;;2.82;100.00
72721;BME280;60835;50.974;10.322;2023-04-02T07:52:40;95003.47;;;2.74;100.00
72721;BME280;60835;50.974;10.322;2023-04-02T07:55:11;94999.91;;;2.81;100.00
72721;BME280;60835;50.974;10.322;2023-04-02T07:57:59;95004.31;;;2.81;100.00
72721;BME280;60835;50.974;10.322;2023-04-02T08:00:25;95008.38;;;2.62;100.00
72721;BME280;60835;50.974;10.322;2023-04-02T08:02:52;94998.25;;;2.74;100.00
72721;BME280;60835;50.974;10.322;2023-04-02T08:05:19;94991.25;;;2.81;100.00
72721;BME280;60835;50.974;10.322;2023-04-02T08:07:51;95002.84;;;2.72;100.00
72721;BME280;60835;50.974;10.322;2023-04-02T08:10:18;95017.84;;;2.63;100.00
72721;BME280;60835;50.974;10.322;2023-04-02T08:12:44;95019.22;;;2.59;100.00
72721;BME280;60835;50.974;10.322;2023-04-02T08:15:14;94998.00;;;2.69;100.00
72721;BME280;60835;50.974;10.322;2023-04-02T08:17:43;94998.09;;;2.54;100.00
72721;BME280;60835;50.974;10.322;2023-04-02T08:20:14;94992.78;;;2.69;100.00
72721;BME280;60835;50.974;10.322;2023-04-02T08:22:40;94988.31;;;2.63;100.00
72721;BME280;60835;50.974;10.322;2023-04-02T08:25:07;94972.13;;;2.67;100.00
72721;BME280;60835;50.974;10.322;2023-04-02T08:27:34;94975.00;;;2.79;100.00
72721;BME280;60835;50.974;10.322;2023-04-02T08:30:00;94981.16;;;2.71;100.00
72721;BME280;60835;50.974;10.322;2023-04-02T08:32:31;94983.16;;;2.69;100.00
72721;BME280;60835;50.974;10.322;2023-04-02T08:34:57;94970.53;;;2.73;100.00
72721;BME280;60835;50.974;10.322;2023-04-02T08:37:24;94950.00;;;2.91;100.00
72721;BME280;60835;50.974;10.322;2023-04-02T08:39:50;94958.72;;;2.77;100.00
72721;BME280;60835;50.974;10.322;2023-04-02T08:45:00;94973.31;;;2.65;100.00
72721;BME280;60835;50.974;10.322;2023-04-02T08:47:49;94951.50;;;2.79;100.00
72721;BME280;60835;50.974;10.322;2023-04-02T08:50:25;94964.94;;;2.76;100.00
72721;BME280;60835;50.974;10.322;2023-04-02T08:52:57;94943.53;;;2.87;100.00
72721;BME280;60835;50.974;10.322;2023-04-02T08:58:04;94960.59;;;2.89;100.00
72721;BME280;60835;50.974;10.322;2023-04-02T09:00:34;94981.97;;;2.72;100.00
72721;BME280;60835;50.974;10.322;2023-04-02T09:03:07;94983.69;;;2.86;100.00
72721;BME280;60835;50.974;10.322;2023-04-02T09:05:38;94981.31;;;2.91;100.00
72721;BME280;60835;50.974;10.322;2023-04-02T09:08:24;95006.91;;;2.81;100.00
72721;BME280;60835;50.974;10.322;2023-04-02T09:13:33;95042.59;;;2.74;100.00
72721;BME280;60835;50.974;10.322;2023-04-02T09:16:05;95075.81;;;2.59;100.00
72721;BME280;60835;50.974;10.322;2023-04-02T09:18:33;95073.06;;;2.67;100.00
72721;BME280;60835;50.974;10.322;2023-04-02T09:21:03;95083.50;;;2.67;100.00
72721;BME280;60835;50.974;10.322;2023-04-02T09:23:42;95075.97;;;2.78;100.00
72721;BME280;60835;50.974;10.322;2023-04-02T09:26:23;95114.94;;;2.59;100.00
72721;BME280;60835;50.974;10.322;2023-04-02T09:28:50;95111.97;;;2.62;100.00
72721;BME280;60835;50.974;10.322;2023-04-02T09:31:18;95127.53;;;2.55;100.00
72721;BME280;60835;50.974;10.322;2023-04-02T09:33:48;95146.16;;;2.52;100.00
72721;BME280;60835;50.974;10.322;2023-04-02T09:38:55;95158.28;;;2.60;100.00
72721;BME280;60835;50.974;10.322;2023-04-02T09:41:24;95144.13;;;2.69;100.00
72721;BME280;60835;50.974;10.322;2023-04-02T09:44:09;95186.31;;;2.51;100.00
72721;BME280;60835;50.974;10.322;2023-04-02T09:46:36;95185.75;;;2.56;100.00
72721;BME280;60835;50.974;10.322;2023-04-02T09:49:02;95172.22;;;2.67;100.00
72721;BME280;60835;50.974;10.322;2023-04-02T09:51:32;95182.66;;;2.67;100.00
72721;BME280;60835;50.974;10.322;2023-04-02T09:56:36;95192.88;;;2.83;100.00
72721;BME280;60835;50.974;10.322;2023-04-02T09:59:13;95227.75;;;2.75;100.00
72721;BME280;60835;50.974;10.322;2023-04-02T10:01:42;95252.75;;;2.70;100.00
72721;BME280;60835;50.974;10.322;2023-04-02T10:06:55;95306.59;;;2.56;100.00
72721;BME280;60835;50.974;10.322;2023-04-02T10:09:30;95331.06;;;2.70;100.00
72721;BME280;60835;50.974;10.322;2023-04-02T10:12:00;95348.59;;;2.61;100.00
72721;BME280;60835;50.974;10.322;2023-04-02T10:14:29;95360.75;;;2.69;100.00
72721;BME280;60835;50.974;10.322;2023-04-02T10:17:05;95371.56;;;2.80;100.00
72721;BME280;60835;50.974;10.322;2023-04-02T10:19:35;95395.81;;;2.81;100.00
72721;BME280;60835;50.974;10.322;2023-04-02T10:22:04;95398.09;;;2.84;100.00
72721;BME280;60835;50.974;10.322;2023-04-02T10:24:37;95435.53;;;2.76;100.00
72721;BME280;60835;50.974;10.322;2023-04-02T10:35:00;95517.59;;;2.74;100.00
72721;BME280;60835;50.974;10.322;2023-04-02T10:46:00;95555.50;;;3.36;100.00
72721;BME280;60835;50.974;10.322;2023-04-02T10:53:19;95645.75;;;3.24;100.00
72721;BME280;60835;50.974;10.322;2023-04-02T10:56:00;95681.50;;;3.24;100.00
72721;BME280;60835;50.974;10.322;2023-04-02T10:58:30;95719.88;;;3.23;100.00
72721;BME280;60835;50.974;10.322;2023-04-02T11:01:06;95780.00;;;3.15;100.00
72721;BME280;60835;50.974;10.322;2023-04-02T11:03:45;95830.69;;;3.06;100.00
72721;BME280;60835;50.974;10.322;2023-04-02T11:08:47;95871.44;;;3.15;100.00
72721;BME280;60835;50.974;10.322;2023-04-02T11:13:55;95921.00;;;3.31;100.00
72721;BME280;60835;50.974;10.322;2023-04-02T11:16:23;95939.56;;;3.44;100.00
72721;BME280;60835;50.974;10.322;2023-04-02T11:24:24;96036.91;;;3.85;100.00
72721;BME280;60835;50.974;10.322;2023-04-02T11:26:52;96105.44;;;3.73;100.00
72721;BME280;60835;50.974;10.322;2023-04-02T11:29:23;96181.63;;;3.61;100.00
72721;BME280;60835;50.974;10.322;2023-04-02T11:32:11;96229.97;;;3.65;100.00
72721;BME280;60835;50.974;10.322;2023-04-02T11:37:08;96348.59;;;3.56;100.00
72721;BME280;60835;50.974;10.322;2023-04-02T11:39:45;96408.56;;;3.66;100.00
72721;BME280;60835;50.974;10.322;2023-04-02T11:42:23;96469.38;;;3.68;100.00
72721;BME280;60835;50.974;10.322;2023-04-02T11:44:52;96468.16;;;3.96;100.00
72721;BME280;60835;50.974;10.322;2023-04-02T11:47:19;96512.28;;;3.91;100.00
72721;BME280;60835;50.974;10.322;2023-04-02T11:55:25;96660.94;;;4.04;100.00
72721;BME280;60835;50.974;10.322;2023-04-02T12:05:59;96791.81;;;3.86;100.00
72721;BME280;60835;50.974;10.322;2023-04-02T12:08:34;96794.38;;;4.04;100.00
72721;BME280;60835;50.974;10.322;2023-04-02T12:11:29;96803.50;;;4.00;100.00
72721;BME280;60835;50.974;10.322;2023-04-02T12:13:56;96824.66;;;4.06;100.00
72721;BME280;60835;50.974;10.322;2023-04-02T12:16:23;96818.00;;;4.12;100.00
72721;BME280;60835;50.974;10.322;2023-04-02T12:18:56;96832.66;;;4.05;100.00
72721;BME280;60835;50.974;10.322;2023-04-02T12:21:24;96792.28;;;4.33;100.00
72721;BME280;60835;50.974;10.322;2023-04-02T12:23:55;96819.00;;;4.19;100.00
72721;BME280;60835;50.974;10.322;2023-04-02T12:26:25;96879.44;;;4.08;100.00
72721;BME280;60835;50.974;10.322;2023-04-02T12:28:53;96896.59;;;4.02;100.00
72721;BME280;60835;50.974;10.322;2023-04-02T12:31:19;96889.47;;;3.95;100.00
72721;BME280;60835;50.974;10.322;2023-04-02T12:33:50;96898.06;;;3.87;100.00
72721;BME280;60835;50.974;10.322;2023-04-02T12:36:18;96935.22;;;3.91;100.00
72721;BME280;60835;50.974;10.322;2023-04-02T12:38:46;96947.25;;;4.01;100.00
72721;BME280;60835;50.974;10.322;2023-04-02T12:41:26;96958.28;;;4.05;100.00
72721;BME280;60835;50.974;10.322;2023-04-02T12:43:59;96942.09;;;4.27;100.00
72721;BME280;60835;50.974;10.322;2023-04-02T12:46:26;96959.13;;;4.13;100.00
72721;BME280;60835;50.974;10.322;2023-04-02T12:48:53;96927.91;;;4.12;100.00
72721;BME280;60835;50.974;10.322;2023-04-02T12:51:20;96885.38;;;4.36;100.00
72721;BME280;60835;50.974;10.322;2023-04-02T12:53:48;96901.84;;;4.28;100.00
72721;BME280;60835;50.974;10.322;2023-04-02T12:56:19;96908.94;;;4.36;100.00
72721;BME280;60835;50.974;10.322;2023-04-02T12:58:53;96954.34;;;4.44;100.00
72721;BME280;60835;50.974;10.322;2023-04-02T13:01:20;96977.53;;;4.39;100.00
72721;BME280;60835;50.974;10.322;2023-04-02T13:04:03;97037.22;;;4.18;100.00
72721;BME280;60835;50.974;10.322;2023-04-02T13:06:30;97058.63;;;4.31;100.00
72721;BME280;60835;50.974;10.322;2023-04-02T13:08:57;97069.59;;;4.35;100.00
72721;BME280;60835;50.974;10.322;2023-04-02T13:11:40;97072.75;;;4.38;100.00
72721;BME280;60835;50.974;10.322;2023-04-02T13:14:13;97073.41;;;4.40;100.00
72721;BME280;60835;50.974;10.322;2023-04-02T13:16:42;97045.06;;;4.53;100.00
72721;BME280;60835;50.974;10.322;2023-04-02T13:19:30;97069.25;;;4.47;100.00
72721;BME280;60835;50.974;10.322;2023-04-02T13:21:55;97038.56;;;4.57;100.00
72721;BME280;60835;50.974;10.322;2023-04-02T13:24:23;97024.91;;;4.71;100.00
72721;BME280;60835;50.974;10.322;2023-04-02T13:26:53;97042.59;;;4.69;100.00
72721;BME280;60835;50.974;10.322;2023-04-02T13:31:49;97096.94;;;4.50;100.00
72721;BME280;60835;50.974;10.322;2023-04-02T13:34:16;97083.16;;;4.65;100.00
72721;BME280;60835;50.974;10.322;2023-04-02T13:36:44;97121.97;;;4.35;100.00
72721;BME280;60835;50.974;10.322;2023-04-02T13:39:10;97080.53;;;4.48;100.00
72721;BME280;60835;50.974;10.322;2023-04-02T13:44:10;97071.03;;;4.64;100.00
72721;BME280;60835;50.974;10.322;2023-04-02T13:46:39;97089.16;;;4.75;100.00
72721;BME280;60835;50.974;10.322;2023-04-02T13:49:07;97144.28;;;4.56;100.00
72721;BME280;60835;50.974;10.322;2023-04-02T13:51:49;97167.03;;;4.56;100.00
72721;BME280;60835;50.974;10.322;2023-04-02T13:54:28;97188.16;;;4.72;100.00
72721;BME280;60835;50.974;10.322;2023-04-02T13:56:56;97275.44;;;4.72;100.00
72721;BME280;60835;50.974;10.322;2023-04-02T13:59:23;97323.09;;;4.85;100.00
72721;BME280;60835;50.974;10.322;2023-04-02T14:01:49;97373.53;;;4.87;100.00
72721;BME280;60835;50.974;10.322;2023-04-02T14:04:18;97437.47;;;4.67;100.00
72721;BME280;60835;50.974;10.322;2023-04-02T14:09:28;97459.09;;;4.69;100.00
72721;BME280;60835;50.974;10.322;2023-04-02T14:12:12;97453.16;;;4.77;100.00
72721;BME280;60835;50.974;10.322;2023-04-02T14:14:56;97456.75;;;4.66;100.00
72721;BME280;60835;50.974;10.322;2023-04-02T14:17:32;97449.91;;;4.65;100.00
72721;BME280;60835;50.974;10.322;2023-04-02T14:33:15;97387.03;;;4.65;100.00
72721;BME280;60835;50.974;10.322;2023-04-02T14:35:56;97372.69;;;4.60;100.00
72721;BME280;60835;50.974;10.322;2023-04-02T14:38:40;97377.50;;;4.64;100.00
72721;BME280;60835;50.974;10.322;2023-04-02T14:41:27;97383.69;;;4.63;100.00
72721;BME280;60835;50.974;10.322;2023-04-02T14:43:58;97373.31;;;4.81;100.00
72721;BME280;60835;50.974;10.322;2023-04-02T14:46:27;97361.00;;;4.91;100.00
72721;BME280;60835;50.974;10.322;2023-04-02T14:52:09;97406.00;;;4.77;100.00
72721;BME280;60835;50.974;10.322;2023-04-02T14:54:43;97463.63;;;4.77;100.00
72721;BME280;60835;50.974;10.322;2023-04-02T14:57:20;97472.19;;;4.79;100.00
72721;BME280;60835;50.974;10.322;2023-04-02T15:02:35;97460.28;;;4.94;100.00
72721;BME280;60835;50.974;10.322;2023-04-02T15:05:13;97469.34;;;5.09;100.00
72721;BME280;60835;50.974;10.322;2023-04-02T15:07:44;97442.78;;;5.22;100.00
72721;BME280;60835;50.974;10.322;2023-04-02T15:13:03;97488.53;;;5.10;100.00
72721;BME280;60835;50.974;10.322;2023-04-02T15:18:11;97537.47;;;5.19;100.00
72721;BME280;60835;50.974;10.322;2023-04-02T15:21:03;97600.97;;;5.13;100.00
72721;BME280;60835;50.974;10.322;2023-04-02T15:23:30;97609.75;;;5.31;100.00
72721;BME280;60835;50.974;10.322;2023-04-02T15:26:22;97708.59;;;5.21;100.00
72721;BME280;60835;50.974;10.322;2023-04-02T15:28:50;97756.47;;;5.32;100.00
72721;BME280;60835;50.974;10.322;2023-04-02T15:31:19;97747.34;;;5.46;100.00
72721;BME280;60835;50.974;10.322;2023-04-02T15:33:50;97798.72;;;5.39;100.00
72721;BME280;60835;50.974;10.322;2023-04-02T15:38:48;97947.13;;;5.32;100.00
72721;BME280;60835;50.974;10.322;2023-04-02T15:41:24;97955.84;;;5.42;100.00
72721;BME280;60835;50.974;10.322;2023-04-02T15:49:20;97933.78;;;5.14;100.00
72721;BME280;60835;50.974;10.322;2023-04-02T15:54:41;97970.56;;;5.24;100.00
72721;BME280;60835;50.974;10.322;2023-04-02T16:08:00;98117.34;;;5.14;100.00
72721;BME280;60835;50.974;10.322;2023-04-02T16:10:36;98153.56;;;5.20;100.00
72721;BME280;60835;50.974;10.322;2023-04-02T16:13:19;98146.03;;;5.27;100.00
72721;BME280;60835;50.974;10.322;2023-04-02T16:15:50;98139.78;;;5.28;100.00
72721;BME280;60835;50.974;10.322;2023-04-02T16:20:54;98128.16;;;5.21;100.00